Tenerife Sur, Canary Islands

06:01 AM WEST del 21 Aprile 2015 (GMT +0100)
Reina Sofia | | Change Station
CLOSE
Current Station
Aeroporto
Location: Tenerife Sur,
Altitudine: 253 ft
Stazioni meteo nelle vicinanze

Alt. 253 ft 28.05 °N, 16.56 °W | Updated 31 minutes ago

Partly Cloudy
Parzialmente nuvoloso
61 °F
Sembra 61 °F
N
6
Vento Variabile Vento da NNE

Oggi
Massima -- | Minima -- °F
--% Possibilità di precip.
Ieri
Massima -- | Minima -- °F
Precip. -- in
7:35 AM 8:34 PM
Luna crescente, 8% visible
Pressione 30.04 in
Visibilità 6.2 miglia
Nuvole Alcuni 4400 ft
Punto di rugiada 46 °F
Umidità 59%
Piovosità 0.00 in
Spessore del manto nevoso Non disponibile.
Raggi UV 0 fuori da 12
Polline Non disponibile.
Qualità dell'aria Non disponibile.
Flu Activity Non disponibile.
METAR GCTS 210430Z 02005KT 350V060 9999 FEW044 16/08 Q1017 NOSIG

More Conditions Fewer Conditions

Pressione 30.04 in
Visibilità 6.2 miglia
Nuvole Alcuni 4400 ft
Punto di rugiada 46 °F
Umidità 59%
Piovosità 0.00 in
Spessore del manto nevoso Non disponibile.
Raggi UV 0 fuori da 12
Polline Non disponibile.
Qualità dell'aria Non disponibile.
Flu Activity Non disponibile.
METAR GCTS 210430Z 02005KT 350V060 9999 FEW044 16/08 Q1017 NOSIG

More Conditions Fewer Conditions

10-Day Weather Forecast

Almanac

Astronomia

Apr. 21, 2015 Alba Tramonto
Ora attuale
Crepuscolo civile
Crepuscolo nautico
Crepuscolo astronomico
Luna
Estensione della luce visibile
Lunghezza del giorno
Tomorrow will be .
, % of the Moon is Illuminated

Gli estremi di oggi

Massime Regione Minime Regione

Community

WunderPhotos

Upload Photos

1,815,316 foto caricate!

WunderBlogs® & News

Nearby

Qualità dell'aria

  Qualità dell'aria Indice AQ Inquinante
Not available.

Profondità neve

Stazione Profondità Altitudine

Attività sismica

Città  Distanza Mag. Data & Ora
Minimo Magnitudo Mostrato è 2.5.

Temperature delle acque costiere

Località Temperatura

Stations

Stazioni meteo nelle vicinanze

Ubicazione della stazione Temp. Raffreddamento del vento Punto di rugiada Umidità Vento Precip. Alt. Aggiornato Tipo